NWS Home NWS Lubbock West Texas Mesonet                      Daily Summary For 10/17/2020

Latest   N   C   S   Daily Sum   3hrΔ   24hrΔ   Soil Data 
Site Map   24hr Precip   72hr Precip   Google Plot


Station Time of Last Max Temp Min Temp Max/Min Dew Pt. Max/Min RH 10m Avg Wind 2m Avg Wind Peak Gust @ 33ft (mph) Potential Evapotranspiration
mm/day or in/day
Rain Sum Solar Rad
MJ/m^2
% Clear Day Red Flag
Abernathy 5ENE 11:59 PM 64 54 53 /46 58 / 67 16.5  (S) 12.5 34 mph 248° @ 0307 PM 6.9 or 0.27 0.00 19.8 145.6 51
Adrian 6WSW 11:59 PM 64 54 53 /46 58 / 67 16.6  (S) 12.4 42.7 mph 202° @ 1240 AM 5.8 or 0.23 0.00 20.5 157.8 0
Aiken 3WSW 11:59 PM 64 54 53 /46 58 / 67 15.7  (S) 12.2 32.4 mph 223° @ 0950 AM 6.1 or 0.24 0.00 20.3 151.3 16
Amarillo 15NNW 11:59 PM 64 54 53 /46 58 / 67 10.6  (S) 6.8 33.2 mph 202° @ 0333 AM 4.1 or 0.16 0.00 19 148.3 0
Amarillo 7SSE 11:59 PM 64 54 53 /46 58 / 67 10  (S) 6.9 27 mph 201° @ 0253 AM 4.1 or 0.16 0.00 18.4 141.7 0
Amarillo 9NNE 11:59 PM 64 54 53 /46 58 / 67 11.8  (S) 8.4 37.8 mph 192° @ 0253 AM 4.6 or 0.18 0.00 18.3 142 0
Amherst 1NE 11:55 PM 64 54 53 /46 58 / 67 14.5  (S) 10.2 35.8 mph 261° @ 0325 PM 5.6 or 0.22 0.00 19.5 144.4 145
Andrews 2E 11:55 PM 64 54 53 /46 58 / 67 9.6  (SE) 5.5 26.2 mph 166° @ 0920 PM 4.3 or 0.17 0.00 19.5 136.7 0
Anton 6SSW 11:55 PM 64 54 53 /46 58 / 67 15  (S) 11.3 33.8 mph 252° @ 0405 PM 6.1 or 0.24 0.00 19.3 141.5 40
Aspermont 3NE 11:55 PM 64 54 53 /46 58 / 67 13.2  (S) 9.3 29.5 mph 208° @ 0145 PM 4.8 or 0.19 0.00 18.3 133.6 0
Big Bend NP - Castolon 11:59 PM 64 54 53 /46 58 / 67 5.2  (NW) 3.7 17.8 mph 142° @ 1122 AM 3.3 or 0.13 0.00 20.6 131.4 0
Big Bend NP - Persimmon Gap 11:59 PM 64 54 53 /46 58 / 67 6.7  (N) 5 23.4 mph 198° @ 0529 PM 3.8 or 0.15 0.00 20 129 0
Big Lake 1WNW 11:59 PM 64 54 53 /46 58 / 67 14.3  (SE) 11.3 32.1 mph 181° @ 0945 AM 4.6 or 0.18 0.00 20.8 140.6 0
Bootleg 11WNW 11:59 PM 64 54 53 /46 58 / 67 17  (SW) 12.7 35.3 mph 226° @ 0508 AM 6.4 or 0.25 0.00 17.6 133.5 1
Borger 7E 11:59 PM 64 54 53 /46 58 / 67 12.5  (S) 9.1 44.9 mph 211° @ 0411 AM 4.3 or 0.17 0.00 19.9 156.6 0
Boys Ranch 1WSW 11:59 PM 64 54 53 /46 58 / 67 6.7  (SW) 4.8 30 mph 233° @ 0320 AM 2.8 or 0.11 0.00 18.4 144.3 0
Brownfield 2S 11:59 PM 64 54 53 /46 58 / 67 12.6  (S) 7.9 34 mph 253° @ 0432 PM 5.8 or 0.23 0.00 19 136.6 15
Canadian 6E 11:59 PM 64 54 53 /46 58 / 67 12.9  (S) 8.4 29.8 mph 184° @ 0235 AM 4.3 or 0.17 0.00 18.6 148.8 0
Caprock Canyons State Park 11:59 PM 64 54 53 /46 58 / 67 13.9  (S) 9.6 31 mph 209° @ 0320 AM 5.6 or 0.22 0.00 19.8 149.3 4
Childress 2NNE 11:55 PM 64 54 53 /46 58 / 67 15.3  (S) 10.6 28.3 mph 179° @ 1010 AM 5.3 or 0.21 0.00 18.4 139.7 0
Clarendon 2WSW 11:55 PM 64 54 53 /46 58 / 67 10.3  (S) 6 22.5 mph 183° @ 1245 AM 4.1 or 0.16 0.00 19.3 148.5 0
Claude 12SW 11:59 PM 64 54 53 /46 58 / 67 10.5  (S) 7.2 28.1 mph 209° @ 0529 AM 4.1 or 0.16 0.00 20.4 156.5 0
Clyde 2WNW 11:59 PM 64 54 53 /46 58 / 67 14.7  (SE) 10.7 34.2 mph 197° @ 1106 AM 4.6 or 0.18 0.00 19.1 135.5 0
Colorado City 5NW 11:59 PM 64 54 53 /46 58 / 67 11.9  (E) 7.7 26.8 mph 211° @ 0217 PM 4.6 or 0.18 0.00 19 134.3 0
Comanche Springs 11:59 PM 64 54 53 /46 58 / 67 10.4  (SE) 7.7 29.6 mph 191° @ 0121 PM 4.1 or 0.16 0.00 19.6 147 0
Coyanosa 2N 11:59 PM 64 54 53 /46 58 / 67 6.4  (SE) 3.4 16.8 mph 239° @ 0447 PM 3.8 or 0.15 0.00 19.8 134.8 0
Crane 1NNW 11:59 PM 64 54 53 /46 58 / 67 14.5  (SE) 11.8 34.2 mph 188° @ 1046 PM 5.8 or 0.23 0.00 20.7 141.1 0
Crowell 1E 11:59 PM 64 54 53 /46 58 / 67 15.3  (S) 11.4 29.7 mph 204° @ 1138 AM 5.3 or 0.21 0.00 19.1 143.4 0
Dell City 11:59 PM 64 54 53 /46 58 / 67 4.3  (SW) 2.6 10.9 mph 55° @ 0250 PM 2.5 or 0.1 0.00 19.3 132.6 0
Denver City 7WNW 11:55 PM 64 54 53 /46 58 / 67 11.7  (S) 7.3 27.1 mph 264° @ 0320 PM 5.1 or 0.2 0.00 20.3 145.1 0
Dimmitt 2NE 11:55 PM 64 54 53 /46 58 / 67 16.5  (S) 13.1 33.2 mph 201° @ 0120 AM 6.1 or 0.24 0.00 19.1 143.7 0
Doole 3WNW 11:59 PM 64 54 53 /46 58 / 67 10.6  (SE) 6.8 28.3 mph 190° @ 0251 PM 3.8 or 0.15 0.00 19.9 137.3 0
Dora NM 2SW 11:55 PM 64 54 53 /46 58 / 67 16.5  (S) 10.8 34 mph 272° @ 0435 PM 5.8 or 0.23 0.00 18.7 136.9 70
Dozier 3W 11:59 PM 64 54 53 /46 58 / 67 10.2  (S) 5.4 24.1 mph 188° @ 0944 AM 4.1 or 0.16 0.00 19 147.4 0
Earth 9WSW 11:59 PM 64 54 53 /46 58 / 67 17.8  (S) 14 33.4 mph 260° @ 0232 PM 6.6 or 0.26 0.00 19.9 148.1 166
Endee NM 2SW 11:59 PM 64 54 53 /46 58 / 67 14.1  (S) 10.3 33.9 mph 195° @ 1231 AM 5.3 or 0.21 0.00 19.1 146.3 0
Estelline 3SSE 11:59 PM 64 54 53 /46 58 / 67 10.9  (SE) 7.2 24.2 mph 194° @ 1026 AM 4.8 or 0.19 0.00 18.9 144.2 0
Floydada 2NNE 11:55 PM 64 54 53 /46 58 / 67 16.5  (S) 11.6 32.5 mph 213° @ 1000 AM 6.9 or 0.27 0.00 19.2 142.1 5
Fluvanna 3WNW 11:55 PM 64 54 53 /46 58 / 67 14.8  (S) 9.7 30.2 mph 203° @ 0120 PM 5.3 or 0.21 0.00 17.8 127.2 0
Fort Chadbourne 11:59 PM 64 54 53 /46 58 / 67 7.7  (SE) 4.9 25.9 mph 201° @ 0134 PM 3 or 0.12 0.00 14.8 103.7 0
Fort Lancaster 11:59 PM 64 54 53 /46 58 / 67 10.3  (SE) 7.3 23 mph 154° @ 0412 PM 3.6 or 0.14 0.00 19.4 130 0
Fort Lewis CO 11:59 PM 64 54 53 /46 58 / 67 10.1  (W) 7.2 29.7 mph 282° @ 0427 PM 2.3 or 0.09 0.00 19.7 158.9 0
Fort McKavett 11:59 PM 64 54 53 /46 58 / 67 8.9  (SE) 5 26.4 mph 195° @ 0117 PM 3.3 or 0.13 0.00 19 127.7 0
Friona 2NE 11:55 PM 64 54 53 /46 58 / 67 17.1  (SW) 13.2 33 mph 262° @ 1115 AM 6.4 or 0.25 0.00 20 150.8 0
Fritch 1WNW 11:59 PM 64 54 53 /46 58 / 67 12.4  (SW) 10.4 37 mph 220° @ 0420 AM 4.6 or 0.18 0.00 19.3 152 0
Gail 2ESE 11:55 PM 64 54 53 /46 58 / 67 11.3  (S) 5.8 26.3 mph 219° @ 0250 PM 4.8 or 0.19 0.00 18.6 133 0
Goodlett 3W 11:55 PM 64 54 53 /46 58 / 67 16.6  (S) 12.2 32.2 mph 181° @ 1010 AM 5.6 or 0.22 0.00 19.5 148 0
Goodnight 11:59 PM 64 54 53 /46 58 / 67 9.3  (S) 6.3 23.8 mph 187° @ 0423 AM 3.8 or 0.15 0.00 18.6 142.9 0
Graham 5SSW 11:55 PM 64 54 53 /46 58 / 67 14.7  (S) 11.3 31.2 mph 190° @ 1025 PM 5.6 or 0.22 0.00 18 129.7 0
Guadalupe Mtns Natl Park 11:59 PM 64 54 53 /46 58 / 67 13.3  (W) 10.1 33 mph 217° @ 0153 PM 3.8 or 0.15 0.00 18.7 126.6 0
Guthrie 10WSW 11:55 PM 64 54 53 /46 58 / 67 14.6  (S) 9.9 30.1 mph 198° @ 0150 PM 5.6 or 0.22 0.00 18.2 133.8 0
Hackberry 2SSE 11:59 PM 64 54 53 /46 58 / 67 16.5  (SE) 12.8 32.8 mph 205° @ 1023 AM 5.8 or 0.23 0.00 20.2 150.9 0
Happy 1E 11:59 PM 64 54 53 /46 58 / 67 13.3  (S) 10.3 29.3 mph 224° @ 0554 AM 5.3 or 0.21 0.00 20.5 155.7 0
Hart 3N 11:55 PM 64 54 53 /46 58 / 67 14.7  (S) 10.6 28.7 mph 266° @ 0115 PM 5.8 or 0.23 0.00 19.8 148.4 5
Haskell 1NW 11:55 PM 64 54 53 /46 58 / 67 13.1  (SE) 9.1 31 mph 206° @ 0210 PM 4.6 or 0.18 0.00 17.9 130.2 0
Hefner 1SW 11:59 PM 64 54 53 /46 58 / 67 17.4  (S) 12.7 31.8 mph 186° @ 1050 AM 5.6 or 0.22 0.00 18.8 138.6 0
Hereford 2NW 11:55 PM 64 54 53 /46 58 / 67 12.8  (SW) 10.1 25.3 mph 305° @ 0340 PM 5.1 or 0.2 0.00 19.3 146.4 0
Hobbs NM 5NW 11:59 PM 64 54 53 /46 58 / 67 9.2  (S) 6.4 21.6 mph 251° @ 0254 PM 4.1 or 0.16 0.00 19.7 139.4 0
Jayton 1SSE 11:55 PM 64 54 53 /46 58 / 67 11.9  (SE) 8.5 27 mph 197° @ 1145 PM 4.6 or 0.18 0.00 18.4 133.9 0
Junction 1SSW 11:59 PM 64 54 53 /46 58 / 67 7  (S) 5.1 24.4 mph 182° @ 0201 PM 2.5 or 0.1 0.00 13.4 89.4 0
Kent 9E 11:59 PM 64 54 53 /46 58 / 67 10.2  (SW) 6.9 31 mph 240° @ 1140 AM 4.3 or 0.17 0.00 20 133.8 1
Knox City 3NW 11:59 PM 64 54 53 /46 58 / 67 14.7  (S) 10.5 31.8 mph 207° @ 0311 PM 5.1 or 0.2 0.00 19.4 143 0
Lake Alan Henry 1NW 11:59 PM 64 54 53 /46 58 / 67 11.9  (S) 8.2 28.1 mph 227° @ 1256 PM 4.8 or 0.19 0.00 18.4 132.7 0
Lake McClellan 2NW 11:59 PM 64 54 53 /46 58 / 67 13.6  (S) 10.2 29.8 mph 187° @ 1234 AM 4.6 or 0.18 0.00 19.1 147.9 0
Lamesa 2SE 11:55 PM 64 54 53 /46 58 / 67 11.7  (SE) 6.9 26 mph 227° @ 0320 PM 4.8 or 0.19 0.00 19.5 138.5 0
Lesley 2S 11:59 PM 64 54 53 /46 58 / 67 7.3  (E) 4.6 17 mph 237° @ 1250 PM 3.3 or 0.13 0.00 20.2 154.5 0
Levelland 4S 11:59 PM 64 54 53 /46 58 / 67 14.3  (S) 11.4 38.4 mph 253° @ 0427 PM 5.8 or 0.23 0.00 19.8 144.1 88
Lomax 1SSE 11:59 PM 64 54 53 /46 58 / 67 12.5  (SE) 8.6 27.6 mph 189° @ 0944 AM 4.8 or 0.19 0.00 20.2 141.1 0
Lubbock 3WNW TTU 11:55 PM 64 54 53 /46 58 / 67 12.7  (S) 7 30.3 mph 280° @ 0415 PM 5.3 or 0.21 0.00 19.6 143.2 0
McAdoo 3NNW 11:59 PM 64 54 53 /46 58 / 67 16.8  (S) 11.7 28.5 mph 205° @ 0912 AM 3 or 0.12 0.00 0.6 4.7 0
McCamey 1SSW 11:59 PM 64 54 53 /46 58 / 67 10.6  (E) 9.1 24.3 mph 166° @ 1014 PM 4.6 or 0.18 0.00 17.8 120.3 0
McLean 1E 11:55 PM 64 54 53 /46 58 / 67 13.5  (S) 10.4 28.5 mph 179° @ 0425 AM 4.3 or 0.17 0.00 20.5 158.9 0
Memphis 1NE 11:55 PM 64 54 53 /46 58 / 67 6.4  (SE) 4.2 21.3 mph 199° @ 1115 AM 3 or 0.12 0.00 17.1 131.1 0
Menard 2NW 11:59 PM 64 54 53 /46 58 / 67 8  (E) 5.4 31.6 mph 201° @ 1216 PM 2.8 or 0.11 0.00 16.7 112.9 0
Mertzon 3NNE 11:59 PM 64 54 53 /46 58 / 67 12.3  (S) 8.4 30.4 mph 189° @ 1022 AM 3.8 or 0.15 0.00 18.4 125.7 0
Morton 1ENE 11:55 PM 64 54 53 /46 58 / 67 14.8  (S) 11.1 31 mph 265° @ 0520 PM 5.6 or 0.22 0.00 19.4 142 40
Muleshoe 2SSW 11:55 PM 64 54 53 /46 58 / 67 15.3  (S) 11.1 36.8 mph 272° @ 0305 PM 5.8 or 0.23 0.00 20.2 150.2 255
New Home 11:59 PM 64 54 53 /46 58 / 67 13.4  (S) 9.4 29.7 mph 240° @ 0407 PM 5.8 or 0.23 0.00 18.9 137.1 14
Northfield 1S 11:55 PM 64 54 53 /46 58 / 67 13.3  (S) 9.1 28.6 mph 218° @ 1235 PM 5.8 or 0.23 0.00 18.2 137.5 0
O'Donnell 1N 11:55 PM 64 54 53 /46 58 / 67 12.8  (S) 8.5 28.2 mph 229° @ 0510 PM 5.3 or 0.21 0.00 16.9 120.8 0
Odell 4ENE 11:59 PM 64 54 53 /46 58 / 67 15.4  (SE) 11.7 32.4 mph 179° @ 1243 PM 4.8 or 0.19 0.00 18.4 139.7 0
Olton 6S 11:55 PM 64 54 53 /46 58 / 67 15.1  (S) 10.8 34 mph 255° @ 0220 PM 5.8 or 0.23 0.00 19.4 143.6 30
Paducah 10SW 11:55 PM 64 54 53 /46 58 / 67 15.5  (S) 9.7 30.1 mph 202° @ 1100 AM 5.8 or 0.23 0.00 18 134.4 0
Palo Duro 4E (JA Ranch) 11:59 PM 64 54 53 /46 58 / 67 6.3  (E) 3.8 18.9 mph 212° @ 1104 AM 3 or 0.12 0.00 19.3 148.2 0
Palo Duro Canyon SP Floor 11:59 PM 64 54 53 /46 58 / 67 4.2  (SE) 1.6 22.8 mph 195° @ 0258 AM 2 or 0.08 0.00 18 138.1 0
Palo Duro Canyon State Park Rim 11:59 PM 64 54 53 /46 58 / 67 8.5  (S) 4.1 29.9 mph 198° @ 0319 AM 3.6 or 0.14 0.00 20.1 153.7 0
Palo Duro Reservoir 1NW 11:59 PM 64 54 53 /46 58 / 67 12.1  (S) 8.3 33.3 mph 199° @ 0151 AM 4.1 or 0.16 0.00 17.7 143.4 0
Pampa 2E 11:55 PM 64 54 53 /46 58 / 67 11.5  (S) 8.1 28.4 mph 172° @ 1230 AM 4.1 or 0.16 0.00 17.9 140.1 0
Panhandle 1SSW 11:59 PM 64 54 53 /46 58 / 67 11.5  (S) 8.9 27.6 mph 193° @ 0237 AM 4.3 or 0.17 0.00 19.4 150.2 0
Plains 3N 11:55 PM 64 54 53 /46 58 / 67 12.9  (S) 9.9 33 mph 262° @ 0435 PM 5.3 or 0.21 0.00 20.3 146 60
Plainview 1S 11:59 PM 64 54 53 /46 58 / 67 13.4  (S) 9.8 30.7 mph 280° @ 0322 PM 5.3 or 0.21 0.00 20.4 152 2
Post 1NE 11:55 PM 64 54 53 /46 58 / 67 12.2  (S) 7.3 27.5 mph 220° @ 0140 PM 5.1 or 0.2 0.00 19.1 138 0
Ralls 1SE 11:55 PM 64 54 53 /46 58 / 67 13.6  (S) 9.3 31.5 mph 229° @ 0320 PM 5.8 or 0.23 0.00 19.1 139.7 0
Reese Center 11:59 PM 64 54 53 /46 58 / 67 14.4  (S) 10.4 34 mph 267° @ 0452 PM 6.1 or 0.24 0.00 19.6 143.1 58
Roaring Springs 3N 11:55 PM 64 54 53 /46 58 / 67 14.9  (SW) 10.9 32 mph 237° @ 0220 PM 5.8 or 0.23 0.00 17.8 131.9 0
Romero 11SSW 11:59 PM 64 54 53 /46 58 / 67 9.8  (SW) 6.5 22.1 mph 207° @ 0524 PM 3.8 or 0.15 0.00 18.4 143.1 0
Rotan 5W 11:59 PM 64 54 53 /46 58 / 67 15.4  (S) 9.4 33.5 mph 194° @ 1128 PM 5.1 or 0.2 0.00 19 136.4 0
San Angelo 7NW 11:55 PM 64 54 53 /46 58 / 67 9.5  (E) 5.9 29 mph 203° @ 0320 PM 3.6 or 0.14 0.00 19.3 132.8 0
Seagraves 1SW 11:55 PM 64 54 53 /46 58 / 67 10.5  (S) 6.2 25.7 mph 234° @ 1215 PM 4.6 or 0.18 0.00 17.2 122.3 0
Segovia 7SSW 11:59 PM 64 54 53 /46 58 / 67 10.8  (SE) 7 26.6 mph 175° @ 1243 PM 3 or 0.12 0.00 15.5 102.5 0
Seminole 2NNE 11:55 PM 64 54 53 /46 58 / 67 9.5  (S) 5.9 23.2 mph 249° @ 0220 PM 4.3 or 0.17 0.00 19.2 135.8 0
Seymour 3NW 11:55 PM 64 54 53 /46 58 / 67 14.1  (SE) 10.8 31.4 mph 186° @ 0400 PM 4.6 or 0.18 0.00 15.8 117.6 0
Sierra Blanca 1SSE 11:59 PM 64 54 53 /46 58 / 67 6.8  (SE) 5 23.2 mph 280° @ 0233 PM 3.3 or 0.13 0.00 18.4 122.4 0
Silverton 7ESE 11:55 PM 64 54 53 /46 58 / 67 14.5  (S) 10.7 31.2 mph 244° @ 1140 AM 5.8 or 0.23 0.00 17.5 131.4 0
Slaton 2NE 11:59 PM 64 54 53 /46 58 / 67 14.9  (S) 10.7 35.1 mph 210° @ 0936 AM 6.1 or 0.24 0.00 19.9 145.1 14
Smyer 11:59 PM 64 54 53 /46 58 / 67 14.1  (S) 11.1 32.4 mph 257° @ 0403 PM 5.8 or 0.23 0.00 20.5 149.5 46
Snyder 3E 11:55 PM 64 54 53 /46 58 / 67 14.4  (SE) 6.6 29.7 mph 201° @ 0245 PM 5.3 or 0.21 0.00 17.1 121.8 0
Snyder 3SSW 11:59 PM 64 54 53 /46 58 / 67 13.2  (S) 9.8 28.4 mph 215° @ 0301 PM 4.8 or 0.19 0.00 19 135.5 0
South Plains 3ENE 11:59 PM 64 54 53 /46 58 / 67 15.3  (S) 10.7 31.1 mph 226° @ 1013 AM 6.1 or 0.24 0.00 19.1 142.6 0
Spur 1W 11:55 PM 64 54 53 /46 58 / 67 9.6  (S) 6.9 27.4 mph 223° @ 0230 PM 4.1 or 0.16 0.00 18.9 138.6 0
St. Lawrence 5SW 11:55 PM 64 54 53 /46 58 / 67 14  (SE) 10 29.1 mph 192° @ 1105 AM 5.1 or 0.2 0.00 20.1 137.9 0
Stamford 5ESE 11:59 PM 64 54 53 /46 58 / 67 14.2  (S) 10.4 31.1 mph 203° @ 0213 PM 4.8 or 0.19 0.00 19 137.6 0
Sterling City 4WSW 11:59 PM 64 54 53 /46 58 / 67 10.6  (SE) 7.5 27.5 mph 165° @ 0126 PM 4.3 or 0.17 0.00 16 111 0
Stinnett 1NNW 11:59 PM 64 54 53 /46 58 / 67 12.7  (S) 8.4 37.3 mph 214° @ 0426 AM 4.3 or 0.17 0.00 19.2 152 0
Stratford 4WNW 11:59 PM 64 54 53 /46 58 / 67 12  (S) 8.5 25.7 mph 232° @ 0403 AM 4.1 or 0.16 0.00 18.6 149.7 0
Sundown 8WSW 11:55 PM 64 54 53 /46 58 / 67 13.8  (S) 8.7 36.1 mph 261° @ 0535 PM 5.8 or 0.23 0.00 17.2 124.4 25
Sweetwater 11SW 11:59 PM 64 54 53 /46 58 / 67 17.4  (SE) 13.1 33.1 mph 197° @ 1116 AM 5.3 or 0.21 0.00 20.5 144.7 0
Tahoka 3NNE 11:59 PM 64 54 53 /46 58 / 67 13.6  (S) 8.2 30.1 mph 227° @ 0348 PM 5.8 or 0.23 0.00 18.8 135.9 14
Tarzan 2WNW 11:59 PM 64 54 53 /46 58 / 67 11.4  (SE) 7.4 27.2 mph 214° @ 0325 PM 4.8 or 0.19 0.00 19.6 137.5 0
Tatum NM 2SW 11:55 PM 64 54 53 /46 58 / 67 14.1  (S) 7.8 35.4 mph 276° @ 0100 PM 5.3 or 0.21 0.00 20.4 146.1 40
Throckmorton 1SW 11:59 PM 64 54 53 /46 58 / 67 10.2  (S) 5 27.7 mph 205° @ 0118 PM 3.8 or 0.15 0.00 19.4 141.8 0
Truscott 2SE 11:59 PM 64 54 53 /46 58 / 67 16.3  (S) 10.9 31.2 mph 206° @ 0216 PM 5.6 or 0.22 0.00 18.4 136.7 0
Tulia 2ENE 11:55 PM 64 54 53 /46 58 / 67 14.8  (S) 11.1 29.1 mph 222° @ 0905 AM 5.8 or 0.23 0.00 17 128.4 0
Turkey 2WSW 11:55 PM 64 54 53 /46 58 / 67 13.4  (S) 10 30.6 mph 186° @ 0455 AM 5.8 or 0.23 0.00 16.8 126.7 0
Umbarger 3NNE 11:59 PM 64 54 53 /46 58 / 67 14.3  (S) 9.5 31.1 mph 223° @ 0454 AM 5.3 or 0.21 0.00 19.2 146.5 0
Van Horn 3ENE 11:59 PM 64 54 53 /46 58 / 67 9.3  (S) 6.2 23.2 mph 259° @ 0300 PM 4.3 or 0.17 0.00 20.9 139.9 0
Vega 4E 11:59 PM 64 54 53 /46 58 / 67 12.8  (S) 9.2 34 mph 216° @ 0433 AM 4.6 or 0.18 0.00 20.6 158.9 0
Vigo Park 11:59 PM 64 54 53 /46 58 / 67 13  (S) 8.6 28.7 mph 207° @ 0346 AM 5.3 or 0.21 0.00 18 136.3 0
Wall 2E 11:59 PM 64 54 53 /46 58 / 67 13  (SE) 8.7 29.7 mph 213° @ 1219 PM 4.1 or 0.16 0.00 19.7 135.2 0
Weinert 2NNE 11:59 PM 64 54 53 /46 58 / 67 14.4  (S) 10.3 29.1 mph 228° @ 0127 PM 4.8 or 0.19 0.00 17.3 127.2 0
Welch 11:59 PM 64 54 53 /46 58 / 67 11.8  (SE) 8.4 27.6 mph 243° @ 0423 PM 5.1 or 0.2 0.00 19.3 137.7 2
White River Lake 6NW 11:59 PM 64 54 53 /46 58 / 67 12.4  (S) 7.7 35.1 mph 201° @ 0351 PM 5.3 or 0.21 0.00 19.9 145.7 2
Wolfforth 6SSW 11:55 PM 64 54 53 /46 58 / 67 13.1  (S) 9.1 31.3 mph 265° @ 0450 PM 5.6 or 0.22 0.00 4 145.4 0

WestTexas Mesonet Home    Site Map/Menu  National Weather Service Lubbock   Soil Data   Latest Observation Page   Previous  Date   Next Last